sensor_id;sensor_type;location;lat;lon;timestamp;P1;durP1;ratioP1;P2;durP2;ratioP2
17566;SDS011;8901;52.088;5.084;2022-09-02T00:01:44;14.73;;;13.70;;
17566;SDS011;8901;52.088;5.084;2022-09-02T00:04:13;14.68;;;13.88;;
17566;SDS011;8901;52.088;5.084;2022-09-02T00:06:42;14.50;;;13.30;;
17566;SDS011;8901;52.088;5.084;2022-09-02T00:09:11;14.30;;;13.40;;
17566;SDS011;8901;52.088;5.084;2022-09-02T00:11:40;14.30;;;13.48;;
17566;SDS011;8901;52.088;5.084;2022-09-02T00:14:09;14.52;;;13.63;;
17566;SDS011;8901;52.088;5.084;2022-09-02T00:16:40;14.07;;;12.80;;
17566;SDS011;8901;52.088;5.084;2022-09-02T00:19:15;13.82;;;12.85;;
17566;SDS011;8901;52.088;5.084;2022-09-02T00:21:43;13.45;;;12.52;;
17566;SDS011;8901;52.088;5.084;2022-09-02T00:24:10;13.30;;;12.60;;
17566;SDS011;8901;52.088;5.084;2022-09-02T00:26:37;13.80;;;12.90;;
17566;SDS011;8901;52.088;5.084;2022-09-02T00:29:04;13.45;;;12.65;;
17566;SDS011;8901;52.088;5.084;2022-09-02T00:31:31;14.95;;;13.98;;
17566;SDS011;8901;52.088;5.084;2022-09-02T00:34:02;14.40;;;13.38;;
17566;SDS011;8901;52.088;5.084;2022-09-02T00:36:29;14.30;;;13.50;;
17566;SDS011;8901;52.088;5.084;2022-09-02T00:38:56;13.30;;;12.50;;
17566;SDS011;8901;52.088;5.084;2022-09-02T00:41:24;13.10;;;12.25;;
17566;SDS011;8901;52.088;5.084;2022-09-02T00:43:54;14.02;;;12.70;;
17566;SDS011;8901;52.088;5.084;2022-09-02T00:46:23;13.55;;;12.70;;
17566;SDS011;8901;52.088;5.084;2022-09-02T00:48:52;13.82;;;12.93;;
17566;SDS011;8901;52.088;5.084;2022-09-02T00:51:25;13.75;;;12.70;;
17566;SDS011;8901;52.088;5.084;2022-09-02T00:53:55;14.15;;;13.30;;
17566;SDS011;8901;52.088;5.084;2022-09-02T00:56:22;13.43;;;12.73;;
17566;SDS011;8901;52.088;5.084;2022-09-02T00:58:52;13.68;;;12.88;;
17566;SDS011;8901;52.088;5.084;2022-09-02T01:01:20;12.88;;;12.18;;
17566;SDS011;8901;52.088;5.084;2022-09-02T01:03:48;13.75;;;12.82;;
17566;SDS011;8901;52.088;5.084;2022-09-02T01:06:16;12.82;;;12.02;;
17566;SDS011;8901;52.088;5.084;2022-09-02T01:08:50;13.45;;;12.65;;
17566;SDS011;8901;52.088;5.084;2022-09-02T01:11:22;13.48;;;12.57;;
17566;SDS011;8901;52.088;5.084;2022-09-02T01:13:51;13.38;;;12.48;;
17566;SDS011;8901;52.088;5.084;2022-09-02T01:16:20;13.23;;;12.43;;
17566;SDS011;8901;52.088;5.084;2022-09-02T01:18:51;13.13;;;12.43;;
17566;SDS011;8901;52.088;5.084;2022-09-02T01:21:21;13.82;;;12.93;;
17566;SDS011;8901;52.088;5.084;2022-09-02T01:23:49;14.05;;;13.00;;
17566;SDS011;8901;52.088;5.084;2022-09-02T01:26:17;13.63;;;12.75;;
17566;SDS011;8901;52.088;5.084;2022-09-02T01:28:45;14.38;;;13.40;;
17566;SDS011;8901;52.088;5.084;2022-09-02T01:31:12;13.10;;;12.40;;
17566;SDS011;8901;52.088;5.084;2022-09-02T01:33:39;13.60;;;12.90;;
17566;SDS011;8901;52.088;5.084;2022-09-02T01:36:06;13.45;;;12.75;;
17566;SDS011;8901;52.088;5.084;2022-09-02T01:38:33;13.00;;;12.30;;
17566;SDS011;8901;52.088;5.084;2022-09-02T01:41:02;13.90;;;12.90;;
17566;SDS011;8901;52.088;5.084;2022-09-02T01:43:29;13.55;;;12.55;;
17566;SDS011;8901;52.088;5.084;2022-09-02T01:45:56;13.50;;;12.63;;
17566;SDS011;8901;52.088;5.084;2022-09-02T01:48:24;12.90;;;12.10;;
17566;SDS011;8901;52.088;5.084;2022-09-02T01:50:52;14.13;;;12.95;;
17566;SDS011;8901;52.088;5.084;2022-09-02T01:53:21;13.23;;;12.43;;
17566;SDS011;8901;52.088;5.084;2022-09-02T01:55:48;13.57;;;12.77;;
17566;SDS011;8901;52.088;5.084;2022-09-02T01:58:16;13.40;;;12.70;;
17566;SDS011;8901;52.088;5.084;2022-09-02T02:00:43;13.65;;;12.85;;
17566;SDS011;8901;52.088;5.084;2022-09-02T02:03:10;13.45;;;12.70;;
17566;SDS011;8901;52.088;5.084;2022-09-02T02:05:37;13.23;;;12.52;;
17566;SDS011;8901;52.088;5.084;2022-09-02T02:08:04;13.02;;;12.20;;
17566;SDS011;8901;52.088;5.084;2022-09-02T02:10:31;13.05;;;12.35;;
17566;SDS011;8901;52.088;5.084;2022-09-02T02:12:59;13.05;;;12.13;;
17566;SDS011;8901;52.088;5.084;2022-09-02T02:15:27;13.23;;;12.52;;
17566;SDS011;8901;52.088;5.084;2022-09-02T02:17:55;13.63;;;12.48;;
17566;SDS011;8901;52.088;5.084;2022-09-02T02:20:22;13.68;;;12.40;;
17566;SDS011;8901;52.088;5.084;2022-09-02T02:22:51;12.95;;;12.25;;
17566;SDS011;8901;52.088;5.084;2022-09-02T02:28:40;13.50;;;12.50;;
17566;SDS011;8901;52.088;5.084;2022-09-02T02:31:08;13.55;;;12.32;;
17566;SDS011;8901;52.088;5.084;2022-09-02T02:33:35;13.80;;;12.88;;
17566;SDS011;8901;52.088;5.084;2022-09-02T02:36:02;14.50;;;13.45;;
17566;SDS011;8901;52.088;5.084;2022-09-02T02:38:30;13.80;;;12.90;;
17566;SDS011;8901;52.088;5.084;2022-09-02T02:40:57;13.80;;;12.90;;
17566;SDS011;8901;52.088;5.084;2022-09-02T02:43:24;14.30;;;13.30;;
17566;SDS011;8901;52.088;5.084;2022-09-02T02:45:51;14.10;;;13.07;;
17566;SDS011;8901;52.088;5.084;2022-09-02T02:48:20;13.30;;;12.20;;
17566;SDS011;8901;52.088;5.084;2022-09-02T02:50:47;12.73;;;11.80;;
17566;SDS011;8901;52.088;5.084;2022-09-02T02:53:14;13.10;;;12.13;;
17566;SDS011;8901;52.088;5.084;2022-09-02T02:55:41;13.07;;;12.38;;
17566;SDS011;8901;52.088;5.084;2022-09-02T02:58:09;12.95;;;12.25;;
17566;SDS011;8901;52.088;5.084;2022-09-02T03:00:36;12.70;;;12.00;;
17566;SDS011;8901;52.088;5.084;2022-09-02T03:03:04;13.35;;;12.45;;
17566;SDS011;8901;52.088;5.084;2022-09-02T03:05:34;12.93;;;12.20;;
17566;SDS011;8901;52.088;5.084;2022-09-02T03:08:03;13.70;;;12.90;;
17566;SDS011;8901;52.088;5.084;2022-09-02T03:10:31;12.77;;;12.07;;
17566;SDS011;8901;52.088;5.084;2022-09-02T03:12:59;13.48;;;12.68;;
17566;SDS011;8901;52.088;5.084;2022-09-02T03:15:26;13.73;;;12.73;;
17566;SDS011;8901;52.088;5.084;2022-09-02T03:17:54;13.30;;;12.60;;
17566;SDS011;8901;52.088;5.084;2022-09-02T03:20:22;13.23;;;12.43;;
17566;SDS011;8901;52.088;5.084;2022-09-02T03:22:52;13.70;;;12.88;;
17566;SDS011;8901;52.088;5.084;2022-09-02T03:25:21;13.70;;;12.70;;
17566;SDS011;8901;52.088;5.084;2022-09-02T03:27:49;13.40;;;12.55;;
17566;SDS011;8901;52.088;5.084;2022-09-02T03:30:16;13.75;;;12.75;;
17566;SDS011;8901;52.088;5.084;2022-09-02T03:32:46;13.52;;;12.82;;
17566;SDS011;8901;52.088;5.084;2022-09-02T03:35:15;13.80;;;12.90;;
17566;SDS011;8901;52.088;5.084;2022-09-02T03:37:43;13.27;;;12.32;;
17566;SDS011;8901;52.088;5.084;2022-09-02T03:40:13;12.82;;;12.13;;
17566;SDS011;8901;52.088;5.084;2022-09-02T03:42:42;13.80;;;12.98;;
17566;SDS011;8901;52.088;5.084;2022-09-02T03:45:09;13.30;;;12.60;;
17566;SDS011;8901;52.088;5.084;2022-09-02T03:47:38;13.70;;;12.88;;
17566;SDS011;8901;52.088;5.084;2022-09-02T03:50:11;12.52;;;11.65;;
17566;SDS011;8901;52.088;5.084;2022-09-02T03:52:38;12.20;;;11.55;;
17566;SDS011;8901;52.088;5.084;2022-09-02T03:55:05;12.68;;;11.88;;
17566;SDS011;8901;52.088;5.084;2022-09-02T03:57:34;12.60;;;11.90;;
17566;SDS011;8901;52.088;5.084;2022-09-02T04:00:01;13.20;;;12.25;;
17566;SDS011;8901;52.088;5.084;2022-09-02T04:02:29;11.40;;;10.60;;
17566;SDS011;8901;52.088;5.084;2022-09-02T04:04:56;13.38;;;12.48;;
17566;SDS011;8901;52.088;5.084;2022-09-02T04:07:23;12.63;;;11.90;;
17566;SDS011;8901;52.088;5.084;2022-09-02T04:09:50;13.48;;;12.45;;
17566;SDS011;8901;52.088;5.084;2022-09-02T04:12:16;13.48;;;12.48;;
17566;SDS011;8901;52.088;5.084;2022-09-02T04:14:45;12.38;;;11.65;;
17566;SDS011;8901;52.088;5.084;2022-09-02T04:17:11;12.88;;;12.07;;
17566;SDS011;8901;52.088;5.084;2022-09-02T04:19:38;12.48;;;11.68;;
17566;SDS011;8901;52.088;5.084;2022-09-02T04:22:05;12.00;;;11.30;;
17566;SDS011;8901;52.088;5.084;2022-09-02T04:24:33;13.07;;;12.00;;
17566;SDS011;8901;52.088;5.084;2022-09-02T04:27:00;12.50;;;11.68;;
17566;SDS011;8901;52.088;5.084;2022-09-02T04:29:27;12.68;;;11.88;;
17566;SDS011;8901;52.088;5.084;2022-09-02T04:31:56;12.15;;;11.35;;
17566;SDS011;8901;52.088;5.084;2022-09-02T04:34:23;12.90;;;11.98;;
17566;SDS011;8901;52.088;5.084;2022-09-02T04:36:50;11.90;;;11.20;;
17566;SDS011;8901;52.088;5.084;2022-09-02T04:39:17;12.45;;;11.45;;
17566;SDS011;8901;52.088;5.084;2022-09-02T04:41:44;11.98;;;11.27;;
17566;SDS011;8901;52.088;5.084;2022-09-02T04:44:11;11.93;;;11.07;;
17566;SDS011;8901;52.088;5.084;2022-09-02T04:46:38;14.18;;;13.10;;
17566;SDS011;8901;52.088;5.084;2022-09-02T04:49:07;12.20;;;11.48;;
17566;SDS011;8901;52.088;5.084;2022-09-02T04:51:34;13.52;;;12.73;;
17566;SDS011;8901;52.088;5.084;2022-09-02T04:54:01;13.40;;;12.60;;
17566;SDS011;8901;52.088;5.084;2022-09-02T04:56:28;11.85;;;11.05;;
17566;SDS011;8901;52.088;5.084;2022-09-02T04:58:56;12.77;;;11.95;;
17566;SDS011;8901;52.088;5.084;2022-09-02T05:01:24;11.70;;;11.00;;
17566;SDS011;8901;52.088;5.084;2022-09-02T05:03:52;13.65;;;12.40;;
17566;SDS011;8901;52.088;5.084;2022-09-02T05:06:22;11.88;;;11.13;;
17566;SDS011;8901;52.088;5.084;2022-09-02T05:08:51;10.60;;;10.00;;
17566;SDS011;8901;52.088;5.084;2022-09-02T05:11:19;11.30;;;10.50;;
17566;SDS011;8901;52.088;5.084;2022-09-02T05:13:48;11.30;;;10.40;;
17566;SDS011;8901;52.088;5.084;2022-09-02T05:16:16;11.48;;;10.88;;
17566;SDS011;8901;52.088;5.084;2022-09-02T05:18:44;11.32;;;10.27;;
17566;SDS011;8901;52.088;5.084;2022-09-02T05:21:11;11.93;;;10.95;;
17566;SDS011;8901;52.088;5.084;2022-09-02T05:23:40;12.90;;;12.10;;
17566;SDS011;8901;52.088;5.084;2022-09-02T05:26:08;12.10;;;11.30;;
17566;SDS011;8901;52.088;5.084;2022-09-02T05:28:36;13.25;;;12.40;;
17566;SDS011;8901;52.088;5.084;2022-09-02T05:31:04;12.93;;;11.77;;
17566;SDS011;8901;52.088;5.084;2022-09-02T05:33:33;13.20;;;12.25;;
17566;SDS011;8901;52.088;5.084;2022-09-02T05:36:02;14.02;;;12.85;;
17566;SDS011;8901;52.088;5.084;2022-09-02T05:38:30;14.18;;;13.10;;
17566;SDS011;8901;52.088;5.084;2022-09-02T05:40:58;12.93;;;12.20;;
17566;SDS011;8901;52.088;5.084;2022-09-02T05:43:33;12.93;;;12.23;;
17566;SDS011;8901;52.088;5.084;2022-09-02T05:46:02;13.18;;;12.27;;
17566;SDS011;8901;52.088;5.084;2022-09-02T05:48:31;13.13;;;12.32;;
17566;SDS011;8901;52.088;5.084;2022-09-02T05:51:26;13.40;;;12.48;;
17566;SDS011;8901;52.088;5.084;2022-09-02T05:53:54;13.45;;;12.55;;
17566;SDS011;8901;52.088;5.084;2022-09-02T05:56:23;12.98;;;12.00;;
17566;SDS011;8901;52.088;5.084;2022-09-02T05:58:51;13.20;;;12.30;;
17566;SDS011;8901;52.088;5.084;2022-09-02T06:01:20;14.80;;;13.75;;
17566;SDS011;8901;52.088;5.084;2022-09-02T06:03:47;12.57;;;11.50;;
17566;SDS011;8901;52.088;5.084;2022-09-02T06:06:17;12.02;;;11.10;;
17566;SDS011;8901;52.088;5.084;2022-09-02T06:08:44;11.50;;;10.65;;
17566;SDS011;8901;52.088;5.084;2022-09-02T06:11:11;11.80;;;11.00;;
17566;SDS011;8901;52.088;5.084;2022-09-02T06:13:40;11.13;;;10.38;;
17566;SDS011;8901;52.088;5.084;2022-09-02T06:16:08;12.45;;;11.45;;
17566;SDS011;8901;52.088;5.084;2022-09-02T06:18:40;12.73;;;11.80;;
17566;SDS011;8901;52.088;5.084;2022-09-02T06:21:07;12.48;;;11.70;;
17566;SDS011;8901;52.088;5.084;2022-09-02T06:23:35;12.75;;;12.00;;
17566;SDS011;8901;52.088;5.084;2022-09-02T06:26:04;13.30;;;12.38;;
17566;SDS011;8901;52.088;5.084;2022-09-02T06:28:33;13.10;;;12.18;;
17566;SDS011;8901;52.088;5.084;2022-09-02T06:31:07;12.43;;;11.52;;
17566;SDS011;8901;52.088;5.084;2022-09-02T06:33:37;13.20;;;12.30;;
17566;SDS011;8901;52.088;5.084;2022-09-02T06:36:04;13.48;;;12.55;;
17566;SDS011;8901;52.088;5.084;2022-09-02T06:38:34;14.15;;;12.73;;
17566;SDS011;8901;52.088;5.084;2022-09-02T06:41:02;12.70;;;11.98;;
17566;SDS011;8901;52.088;5.084;2022-09-02T06:43:29;12.68;;;11.77;;
17566;SDS011;8901;52.088;5.084;2022-09-02T06:45:55;14.00;;;12.55;;
17566;SDS011;8901;52.088;5.084;2022-09-02T06:48:24;14.00;;;12.93;;
17566;SDS011;8901;52.088;5.084;2022-09-02T06:50:51;13.68;;;12.82;;
17566;SDS011;8901;52.088;5.084;2022-09-02T06:53:19;14.02;;;13.02;;
17566;SDS011;8901;52.088;5.084;2022-09-02T06:55:46;12.93;;;12.07;;
17566;SDS011;8901;52.088;5.084;2022-09-02T06:58:13;13.65;;;12.75;;
17566;SDS011;8901;52.088;5.084;2022-09-02T07:00:41;13.25;;;12.35;;
17566;SDS011;8901;52.088;5.084;2022-09-02T07:03:08;14.00;;;12.55;;
17566;SDS011;8901;52.088;5.084;2022-09-02T07:06:00;13.38;;;12.35;;
17566;SDS011;8901;52.088;5.084;2022-09-02T07:08:29;13.50;;;12.52;;
17566;SDS011;8901;52.088;5.084;2022-09-02T07:10:56;12.88;;;12.13;;
17566;SDS011;8901;52.088;5.084;2022-09-02T07:13:23;13.30;;;12.40;;
17566;SDS011;8901;52.088;5.084;2022-09-02T07:15:49;13.40;;;12.60;;
17566;SDS011;8901;52.088;5.084;2022-09-02T07:18:16;13.63;;;12.23;;
17566;SDS011;8901;52.088;5.084;2022-09-02T07:20:44;13.52;;;12.57;;
17566;SDS011;8901;52.088;5.084;2022-09-02T07:23:13;13.40;;;12.50;;
17566;SDS011;8901;52.088;5.084;2022-09-02T07:25:41;13.55;;;12.65;;
17566;SDS011;8901;52.088;5.084;2022-09-02T07:28:08;13.57;;;12.35;;
17566;SDS011;8901;52.088;5.084;2022-09-02T07:30:36;13.60;;;12.60;;
17566;SDS011;8901;52.088;5.084;2022-09-02T07:33:05;14.25;;;13.00;;
17566;SDS011;8901;52.088;5.084;2022-09-02T07:35:32;13.82;;;12.70;;
17566;SDS011;8901;52.088;5.084;2022-09-02T07:38:00;13.32;;;12.30;;
17566;SDS011;8901;52.088;5.084;2022-09-02T07:40:29;13.32;;;12.40;;
17566;SDS011;8901;52.088;5.084;2022-09-02T07:42:56;13.23;;;12.32;;
17566;SDS011;8901;52.088;5.084;2022-09-02T07:45:23;14.45;;;13.45;;
17566;SDS011;8901;52.088;5.084;2022-09-02T07:47:50;14.00;;;12.80;;
17566;SDS011;8901;52.088;5.084;2022-09-02T07:50:18;13.48;;;12.57;;
17566;SDS011;8901;52.088;5.084;2022-09-02T07:52:45;14.70;;;13.50;;
17566;SDS011;8901;52.088;5.084;2022-09-02T07:55:13;14.85;;;13.60;;
17566;SDS011;8901;52.088;5.084;2022-09-02T07:57:42;16.30;;;13.32;;
17566;SDS011;8901;52.088;5.084;2022-09-02T08:00:09;14.52;;;13.20;;
17566;SDS011;8901;52.088;5.084;2022-09-02T08:02:37;15.05;;;13.85;;
17566;SDS011;8901;52.088;5.084;2022-09-02T08:05:04;13.90;;;12.80;;
17566;SDS011;8901;52.088;5.084;2022-09-02T08:07:32;15.48;;;13.88;;
17566;SDS011;8901;52.088;5.084;2022-09-02T08:09:58;13.90;;;12.60;;
17566;SDS011;8901;52.088;5.084;2022-09-02T08:12:26;13.80;;;12.90;;
17566;SDS011;8901;52.088;5.084;2022-09-02T08:14:54;14.27;;;13.13;;
17566;SDS011;8901;52.088;5.084;2022-09-02T08:17:22;14.23;;;13.13;;
17566;SDS011;8901;52.088;5.084;2022-09-02T08:19:49;14.95;;;12.55;;
17566;SDS011;8901;52.088;5.084;2022-09-02T08:22:18;13.20;;;12.40;;
17566;SDS011;8901;52.088;5.084;2022-09-02T08:24:45;13.50;;;12.25;;
17566;SDS011;8901;52.088;5.084;2022-09-02T08:27:12;13.93;;;13.00;;
17566;SDS011;8901;52.088;5.084;2022-09-02T08:29:39;14.43;;;13.15;;
17566;SDS011;8901;52.088;5.084;2022-09-02T08:32:07;13.50;;;12.40;;
17566;SDS011;8901;52.088;5.084;2022-09-02T08:34:34;14.13;;;12.93;;
17566;SDS011;8901;52.088;5.084;2022-09-02T08:37:01;14.68;;;13.60;;
17566;SDS011;8901;52.088;5.084;2022-09-02T08:39:28;13.98;;;12.88;;
17566;SDS011;8901;52.088;5.084;2022-09-02T08:42:00;14.43;;;13.20;;
17566;SDS011;8901;52.088;5.084;2022-09-02T08:44:33;14.45;;;12.93;;
17566;SDS011;8901;52.088;5.084;2022-09-02T08:47:05;14.38;;;13.18;;
17566;SDS011;8901;52.088;5.084;2022-09-02T08:49:41;14.45;;;13.05;;
17566;SDS011;8901;52.088;5.084;2022-09-02T08:52:11;14.65;;;13.75;;
17566;SDS011;8901;52.088;5.084;2022-09-02T08:54:44;14.15;;;13.10;;
17566;SDS011;8901;52.088;5.084;2022-09-02T08:57:16;14.45;;;13.45;;
17566;SDS011;8901;52.088;5.084;2022-09-02T08:59:43;14.38;;;13.00;;
17566;SDS011;8901;52.088;5.084;2022-09-02T09:02:14;15.10;;;13.95;;
17566;SDS011;8901;52.088;5.084;2022-09-02T09:04:52;15.05;;;13.75;;
17566;SDS011;8901;52.088;5.084;2022-09-02T09:07:31;15.32;;;14.00;;
17566;SDS011;8901;52.088;5.084;2022-09-02T09:10:06;15.93;;;14.52;;
17566;SDS011;8901;52.088;5.084;2022-09-02T09:12:48;16.17;;;14.63;;
17566;SDS011;8901;52.088;5.084;2022-09-02T09:15:29;15.10;;;13.90;;
17566;SDS011;8901;52.088;5.084;2022-09-02T09:18:06;14.82;;;13.93;;
17566;SDS011;8901;52.088;5.084;2022-09-02T09:20:37;14.35;;;13.55;;
17566;SDS011;8901;52.088;5.084;2022-09-02T09:23:15;14.82;;;13.68;;
17566;SDS011;8901;52.088;5.084;2022-09-02T09:26:07;14.82;;;13.50;;
17566;SDS011;8901;52.088;5.084;2022-09-02T09:29:09;15.20;;;14.10;;
17566;SDS011;8901;52.088;5.084;2022-09-02T09:31:37;15.20;;;13.90;;
17566;SDS011;8901;52.088;5.084;2022-09-02T09:34:08;15.57;;;14.10;;
17566;SDS011;8901;52.088;5.084;2022-09-02T09:36:48;15.25;;;13.93;;
17566;SDS011;8901;52.088;5.084;2022-09-02T09:39:21;15.25;;;13.98;;
17566;SDS011;8901;52.088;5.084;2022-09-02T09:42:02;14.73;;;13.25;;
17566;SDS011;8901;52.088;5.084;2022-09-02T09:44:42;15.65;;;14.25;;
17566;SDS011;8901;52.088;5.084;2022-09-02T09:47:12;14.98;;;13.93;;
17566;SDS011;8901;52.088;5.084;2022-09-02T09:49:45;15.57;;;14.27;;
17566;SDS011;8901;52.088;5.084;2022-09-02T09:52:23;16.92;;;15.88;;
17566;SDS011;8901;52.088;5.084;2022-09-02T09:57:36;16.92;;;15.82;;
17566;SDS011;8901;52.088;5.084;2022-09-02T10:00:09;16.90;;;15.35;;
17566;SDS011;8901;52.088;5.084;2022-09-02T10:02:44;16.60;;;15.27;;
17566;SDS011;8901;52.088;5.084;2022-09-02T10:05:17;16.40;;;14.93;;
17566;SDS011;8901;52.088;5.084;2022-09-02T10:07:54;17.52;;;16.10;;
17566;SDS011;8901;52.088;5.084;2022-09-02T10:10:23;22.80;;;21.00;;
17566;SDS011;8901;52.088;5.084;2022-09-02T10:12:52;19.15;;;17.52;;
17566;SDS011;8901;52.088;5.084;2022-09-02T10:15:23;23.42;;;21.35;;
17566;SDS011;8901;52.088;5.084;2022-09-02T10:18:02;20.42;;;18.83;;
17566;SDS011;8901;52.088;5.084;2022-09-02T10:20:41;19.40;;;17.60;;
17566;SDS011;8901;52.088;5.084;2022-09-02T10:23:17;19.85;;;18.55;;
17566;SDS011;8901;52.088;5.084;2022-09-02T10:25:58;19.40;;;18.10;;
17566;SDS011;8901;52.088;5.084;2022-09-02T10:28:42;19.35;;;17.85;;
17566;SDS011;8901;52.088;5.084;2022-09-02T10:31:28;17.08;;;15.98;;
17566;SDS011;8901;52.088;5.084;2022-09-02T10:34:04;18.00;;;16.60;;
17566;SDS011;8901;52.088;5.084;2022-09-02T10:36:44;19.63;;;18.02;;
17566;SDS011;8901;52.088;5.084;2022-09-02T10:39:32;19.10;;;17.65;;
17566;SDS011;8901;52.088;5.084;2022-09-02T10:42:09;17.90;;;16.70;;
17566;SDS011;8901;52.088;5.084;2022-09-02T10:44:43;17.60;;;16.50;;
17566;SDS011;8901;52.088;5.084;2022-09-02T10:47:20;18.10;;;16.95;;
17566;SDS011;8901;52.088;5.084;2022-09-02T10:49:56;18.20;;;16.98;;
17566;SDS011;8901;52.088;5.084;2022-09-02T10:52:33;18.75;;;17.45;;
17566;SDS011;8901;52.088;5.084;2022-09-02T10:55:15;17.85;;;16.60;;
17566;SDS011;8901;52.088;5.084;2022-09-02T10:57:50;17.83;;;16.58;;
17566;SDS011;8901;52.088;5.084;2022-09-02T11:00:20;18.23;;;16.65;;
17566;SDS011;8901;52.088;5.084;2022-09-02T11:02:50;19.23;;;17.73;;
17566;SDS011;8901;52.088;5.084;2022-09-02T11:05:25;17.83;;;16.58;;
17566;SDS011;8901;52.088;5.084;2022-09-02T11:07:56;18.60;;;17.30;;
17566;SDS011;8901;52.088;5.084;2022-09-02T11:10:33;18.02;;;16.67;;
17566;SDS011;8901;52.088;5.084;2022-09-02T11:13:04;17.73;;;16.27;;
17566;SDS011;8901;52.088;5.084;2022-09-02T11:15:38;17.27;;;15.88;;
17566;SDS011;8901;52.088;5.084;2022-09-02T11:18:12;17.20;;;15.90;;
17566;SDS011;8901;52.088;5.084;2022-09-02T11:20:46;18.17;;;16.92;;
17566;SDS011;8901;52.088;5.084;2022-09-02T11:23:21;15.95;;;14.95;;
17566;SDS011;8901;52.088;5.084;2022-09-02T11:25:56;17.42;;;16.23;;
17566;SDS011;8901;52.088;5.084;2022-09-02T11:28:31;18.00;;;16.70;;
17566;SDS011;8901;52.088;5.084;2022-09-02T11:31:04;17.08;;;15.88;;
17566;SDS011;8901;52.088;5.084;2022-09-02T11:33:42;16.92;;;15.82;;
17566;SDS011;8901;52.088;5.084;2022-09-02T11:36:15;18.20;;;16.30;;
17566;SDS011;8901;52.088;5.084;2022-09-02T11:38:46;16.52;;;15.50;;
17566;SDS011;8901;52.088;5.084;2022-09-02T11:41:24;17.73;;;16.10;;
17566;SDS011;8901;52.088;5.084;2022-09-02T11:43:53;17.38;;;16.25;;
17566;SDS011;8901;52.088;5.084;2022-09-02T11:46:27;17.75;;;16.08;;
17566;SDS011;8901;52.088;5.084;2022-09-02T11:49:16;17.23;;;16.13;;
17566;SDS011;8901;52.088;5.084;2022-09-02T11:52:21;17.10;;;15.85;;
17566;SDS011;8901;52.088;5.084;2022-09-02T11:55:00;18.10;;;16.45;;
17566;SDS011;8901;52.088;5.084;2022-09-02T11:57:33;19.70;;;18.15;;
17566;SDS011;8901;52.088;5.084;2022-09-02T12:03:11;18.33;;;16.83;;
17566;SDS011;8901;52.088;5.084;2022-09-02T12:05:47;18.88;;;17.38;;
17566;SDS011;8901;52.088;5.084;2022-09-02T12:11:37;18.58;;;16.90;;
17566;SDS011;8901;52.088;5.084;2022-09-02T12:14:05;19.23;;;17.77;;
17566;SDS011;8901;52.088;5.084;2022-09-02T12:16:39;18.35;;;16.77;;
17566;SDS011;8901;52.088;5.084;2022-09-02T12:19:17;19.95;;;18.05;;
17566;SDS011;8901;52.088;5.084;2022-09-02T12:22:22;23.60;;;21.60;;
17566;SDS011;8901;52.088;5.084;2022-09-02T12:24:52;18.25;;;16.95;;
17566;SDS011;8901;52.088;5.084;2022-09-02T12:27:24;26.02;;;23.63;;
17566;SDS011;8901;52.088;5.084;2022-09-02T12:29:55;21.90;;;20.02;;
17566;SDS011;8901;52.088;5.084;2022-09-02T12:35:49;22.40;;;20.73;;
17566;SDS011;8901;52.088;5.084;2022-09-02T12:38:24;20.67;;;19.13;;
17566;SDS011;8901;52.088;5.084;2022-09-02T12:41:00;19.77;;;17.83;;
17566;SDS011;8901;52.088;5.084;2022-09-02T12:43:59;19.23;;;17.92;;
17566;SDS011;8901;52.088;5.084;2022-09-02T12:46:47;16.85;;;15.75;;
17566;SDS011;8901;52.088;5.084;2022-09-02T12:49:26;21.48;;;19.70;;
17566;SDS011;8901;52.088;5.084;2022-09-02T12:52:00;19.58;;;17.95;;
17566;SDS011;8901;52.088;5.084;2022-09-02T12:54:33;19.33;;;17.60;;
17566;SDS011;8901;52.088;5.084;2022-09-02T12:57:05;19.70;;;18.13;;
17566;SDS011;8901;52.088;5.084;2022-09-02T12:59:36;19.52;;;17.90;;
17566;SDS011;8901;52.088;5.084;2022-09-02T13:02:13;17.50;;;16.40;;
17566;SDS011;8901;52.088;5.084;2022-09-02T13:04:52;19.27;;;17.88;;
17566;SDS011;8901;52.088;5.084;2022-09-02T13:07:37;19.45;;;18.02;;
17566;SDS011;8901;52.088;5.084;2022-09-02T13:14:00;17.63;;;16.42;;
17566;SDS011;8901;52.088;5.084;2022-09-02T13:16:48;18.33;;;16.92;;
17566;SDS011;8901;52.088;5.084;2022-09-02T13:19:33;19.90;;;18.42;;
17566;SDS011;8901;52.088;5.084;2022-09-02T13:22:39;17.67;;;16.65;;
17566;SDS011;8901;52.088;5.084;2022-09-02T13:31:18;20.15;;;18.33;;
17566;SDS011;8901;52.088;5.084;2022-09-02T13:33:57;18.95;;;17.55;;
17566;SDS011;8901;52.088;5.084;2022-09-02T13:36:26;20.00;;;18.50;;
17566;SDS011;8901;52.088;5.084;2022-09-02T13:38:54;18.60;;;17.40;;
17566;SDS011;8901;52.088;5.084;2022-09-02T13:41:28;19.60;;;17.95;;
17566;SDS011;8901;52.088;5.084;2022-09-02T13:44:06;20.58;;;19.17;;
17566;SDS011;8901;52.088;5.084;2022-09-02T13:46:41;18.35;;;17.15;;
17566;SDS011;8901;52.088;5.084;2022-09-02T13:49:17;18.98;;;17.40;;
17566;SDS011;8901;52.088;5.084;2022-09-02T13:51:51;19.00;;;17.70;;
17566;SDS011;8901;52.088;5.084;2022-09-02T13:54:21;19.00;;;17.65;;
17566;SDS011;8901;52.088;5.084;2022-09-02T13:56:58;18.55;;;17.25;;
17566;SDS011;8901;52.088;5.084;2022-09-02T13:59:30;18.35;;;17.15;;
17566;SDS011;8901;52.088;5.084;2022-09-02T14:01:58;18.70;;;17.40;;
17566;SDS011;8901;52.088;5.084;2022-09-02T14:04:26;18.20;;;17.10;;
17566;SDS011;8901;52.088;5.084;2022-09-02T14:06:54;19.23;;;17.60;;
17566;SDS011;8901;52.088;5.084;2022-09-02T14:09:23;18.52;;;17.00;;
17566;SDS011;8901;52.088;5.084;2022-09-02T14:11:52;18.73;;;17.42;;
17566;SDS011;8901;52.088;5.084;2022-09-02T14:14:22;19.08;;;17.77;;
17566;SDS011;8901;52.088;5.084;2022-09-02T14:16:50;18.40;;;17.20;;
17566;SDS011;8901;52.088;5.084;2022-09-02T14:19:23;17.88;;;16.67;;
17566;SDS011;8901;52.088;5.084;2022-09-02T14:21:55;17.02;;;15.93;;
17566;SDS011;8901;52.088;5.084;2022-09-02T14:24:24;19.08;;;17.77;;
17566;SDS011;8901;52.088;5.084;2022-09-02T14:26:53;18.25;;;17.00;;
17566;SDS011;8901;52.088;5.084;2022-09-02T14:29:21;18.42;;;16.92;;
17566;SDS011;8901;52.088;5.084;2022-09-02T14:32:05;18.02;;;16.70;;
17566;SDS011;8901;52.088;5.084;2022-09-02T14:34:41;18.67;;;16.77;;
17566;SDS011;8901;52.088;5.084;2022-09-02T14:40:02;18.00;;;16.65;;
17566;SDS011;8901;52.088;5.084;2022-09-02T14:42:33;18.33;;;17.13;;
17566;SDS011;8901;52.088;5.084;2022-09-02T14:45:14;17.80;;;16.50;;
17566;SDS011;8901;52.088;5.084;2022-09-02T14:47:55;18.08;;;16.65;;
17566;SDS011;8901;52.088;5.084;2022-09-02T14:50:26;17.55;;;16.48;;
17566;SDS011;8901;52.088;5.084;2022-09-02T14:53:02;18.73;;;17.27;;
17566;SDS011;8901;52.088;5.084;2022-09-02T14:55:46;18.75;;;17.15;;
17566;SDS011;8901;52.088;5.084;2022-09-02T14:58:17;18.63;;;17.25;;
17566;SDS011;8901;52.088;5.084;2022-09-02T15:00:45;16.60;;;15.70;;
17566;SDS011;8901;52.088;5.084;2022-09-02T15:03:16;17.80;;;16.73;;
17566;SDS011;8901;52.088;5.084;2022-09-02T15:05:43;16.73;;;15.73;;
17566;SDS011;8901;52.088;5.084;2022-09-02T15:08:13;17.92;;;16.67;;
17566;SDS011;8901;52.088;5.084;2022-09-02T15:10:41;18.00;;;16.90;;
17566;SDS011;8901;52.088;5.084;2022-09-02T15:13:10;17.88;;;16.52;;
17566;SDS011;8901;52.088;5.084;2022-09-02T15:15:39;17.90;;;16.50;;
17566;SDS011;8901;52.088;5.084;2022-09-02T15:18:06;16.98;;;15.73;;
17566;SDS011;8901;52.088;5.084;2022-09-02T15:20:33;16.75;;;15.65;;
17566;SDS011;8901;52.088;5.084;2022-09-02T15:23:00;18.15;;;16.75;;
17566;SDS011;8901;52.088;5.084;2022-09-02T15:25:28;17.52;;;16.15;;